sensor_id;sensor_type;location;lat;lon;timestamp;pressure;altitude;pressure_sealevel;temperature;humidity
64368;BME280;50692;53.314;-6.300;2023-02-21T00:00:51;101513.72;;;12.73;81.01
64368;BME280;50692;53.314;-6.300;2023-02-21T00:03:55;101513.81;;;12.72;81.08
64368;BME280;50692;53.314;-6.300;2023-02-21T00:07:01;101515.63;;;12.71;81.12
64368;BME280;50692;53.314;-6.300;2023-02-21T00:10:07;101505.19;;;12.67;81.37
64368;BME280;50692;53.314;-6.300;2023-02-21T00:13:12;101513.16;;;12.67;81.42
64368;BME280;50692;53.314;-6.300;2023-02-21T00:16:17;101509.59;;;12.68;81.16
64368;BME280;50692;53.314;-6.300;2023-02-21T00:19:21;101510.66;;;12.64;81.36
64368;BME280;50692;53.314;-6.300;2023-02-21T00:22:25;101515.19;;;12.62;81.49
64368;BME280;50692;53.314;-6.300;2023-02-21T00:25:29;101509.94;;;12.60;81.19
64368;BME280;50692;53.314;-6.300;2023-02-21T00:28:34;101512.53;;;12.62;81.16
64368;BME280;50692;53.314;-6.300;2023-02-21T00:31:38;101512.41;;;12.65;80.78
64368;BME280;50692;53.314;-6.300;2023-02-21T00:34:43;101509.59;;;12.68;80.75
64368;BME280;50692;53.314;-6.300;2023-02-21T00:37:51;101501.69;;;12.66;80.78
64368;BME280;50692;53.314;-6.300;2023-02-21T00:40:55;101500.69;;;12.69;80.63
64368;BME280;50692;53.314;-6.300;2023-02-21T00:44:00;101501.13;;;12.60;80.50
64368;BME280;50692;53.314;-6.300;2023-02-21T00:47:04;101496.78;;;12.59;80.42
64368;BME280;50692;53.314;-6.300;2023-02-21T00:50:08;101501.13;;;12.60;80.47
64368;BME280;50692;53.314;-6.300;2023-02-21T00:53:13;101500.75;;;12.50;80.22
64368;BME280;50692;53.314;-6.300;2023-02-21T00:56:17;101498.28;;;12.45;80.12
64368;BME280;50692;53.314;-6.300;2023-02-21T00:59:21;101490.66;;;12.39;80.08
64368;BME280;50692;53.314;-6.300;2023-02-21T01:02:25;101485.41;;;12.38;79.85
64368;BME280;50692;53.314;-6.300;2023-02-21T01:05:30;101480.56;;;12.29;79.51
64368;BME280;50692;53.314;-6.300;2023-02-21T01:08:34;101484.63;;;12.36;79.34
64368;BME280;50692;53.314;-6.300;2023-02-21T01:11:38;101488.19;;;12.35;79.08
64368;BME280;50692;53.314;-6.300;2023-02-21T01:14:42;101475.50;;;12.41;78.74
64368;BME280;50692;53.314;-6.300;2023-02-21T01:17:47;101471.72;;;12.28;78.51
64368;BME280;50692;53.314;-6.300;2023-02-21T01:20:51;101467.13;;;12.32;78.37
64368;BME280;50692;53.314;-6.300;2023-02-21T01:23:55;101466.84;;;12.38;77.96
64368;BME280;50692;53.314;-6.300;2023-02-21T01:27:00;101462.97;;;12.45;77.57
64368;BME280;50692;53.314;-6.300;2023-02-21T01:30:04;101460.97;;;12.50;77.17
64368;BME280;50692;53.314;-6.300;2023-02-21T01:33:10;101460.56;;;12.40;77.26
64368;BME280;50692;53.314;-6.300;2023-02-21T01:36:14;101447.97;;;12.27;77.25
64368;BME280;50692;53.314;-6.300;2023-02-21T01:39:18;101449.47;;;12.32;77.19
64368;BME280;50692;53.314;-6.300;2023-02-21T01:42:23;101449.38;;;12.34;77.06
64368;BME280;50692;53.314;-6.300;2023-02-21T01:45:53;101448.16;;;12.41;76.85
64368;BME280;50692;53.314;-6.300;2023-02-21T01:49:02;101440.63;;;12.32;76.34
64368;BME280;50692;53.314;-6.300;2023-02-21T01:52:08;101442.56;;;12.28;75.95
64368;BME280;50692;53.314;-6.300;2023-02-21T01:55:12;101440.81;;;12.29;75.68
64368;BME280;50692;53.314;-6.300;2023-02-21T01:58:19;101441.84;;;12.24;75.20
64368;BME280;50692;53.314;-6.300;2023-02-21T02:01:30;101441.81;;;12.26;74.88
64368;BME280;50692;53.314;-6.300;2023-02-21T02:04:36;101438.34;;;12.24;74.70
64368;BME280;50692;53.314;-6.300;2023-02-21T02:07:41;101440.09;;;12.25;74.82
64368;BME280;50692;53.314;-6.300;2023-02-21T02:10:50;101442.19;;;12.18;75.31
64368;BME280;50692;53.314;-6.300;2023-02-21T02:16:56;101441.75;;;12.09;76.21
64368;BME280;50692;53.314;-6.300;2023-02-21T02:35:55;101424.38;;;12.20;75.34
64368;BME280;50692;53.314;-6.300;2023-02-21T02:38:56;101419.75;;;12.26;75.39
64368;BME280;50692;53.314;-6.300;2023-02-21T02:42:10;101419.03;;;12.22;75.05
64368;BME280;50692;53.314;-6.300;2023-02-21T02:48:16;101408.81;;;12.14;75.24
64368;BME280;50692;53.314;-6.300;2023-02-21T02:51:08;101392.41;;;12.06;75.84
64368;BME280;50692;53.314;-6.300;2023-02-21T02:53:55;101404.72;;;12.07;77.19
64368;BME280;50692;53.314;-6.300;2023-02-21T02:56:41;101406.44;;;12.08;77.50
64368;BME280;50692;53.314;-6.300;2023-02-21T02:59:29;101401.28;;;12.05;78.16
64368;BME280;50692;53.314;-6.300;2023-02-21T03:08:52;101388.31;;;11.99;78.36
64368;BME280;50692;53.314;-6.300;2023-02-21T03:12:04;101383.41;;;11.91;78.22
64368;BME280;50692;53.314;-6.300;2023-02-21T03:17:58;101381.03;;;11.85;78.83
64368;BME280;50692;53.314;-6.300;2023-02-21T03:20:52;101377.34;;;11.89;78.69
64368;BME280;50692;53.314;-6.300;2023-02-21T03:23:41;101378.09;;;11.91;78.86
64368;BME280;50692;53.314;-6.300;2023-02-21T03:26:31;101371.38;;;11.84;79.11
64368;BME280;50692;53.314;-6.300;2023-02-21T03:29:18;101370.53;;;11.84;78.90
64368;BME280;50692;53.314;-6.300;2023-02-21T03:32:30;101377.53;;;11.85;79.04
64368;BME280;50692;53.314;-6.300;2023-02-21T03:35:14;101368.97;;;11.78;79.16
64368;BME280;50692;53.314;-6.300;2023-02-21T03:38:00;101366.34;;;11.78;79.32
64368;BME280;50692;53.314;-6.300;2023-02-21T03:40:46;101364.75;;;11.74;79.23
64368;BME280;50692;53.314;-6.300;2023-02-21T03:43:32;101362.69;;;11.81;79.28
64368;BME280;50692;53.314;-6.300;2023-02-21T03:46:18;101354.53;;;11.85;78.94
64368;BME280;50692;53.314;-6.300;2023-02-21T03:49:04;101356.34;;;11.85;78.85
64368;BME280;50692;53.314;-6.300;2023-02-21T03:51:49;101353.63;;;11.86;78.83
64368;BME280;50692;53.314;-6.300;2023-02-21T03:54:35;101355.34;;;11.87;78.82
64368;BME280;50692;53.314;-6.300;2023-02-21T03:57:22;101352.69;;;11.87;78.69
64368;BME280;50692;53.314;-6.300;2023-02-21T04:00:09;101347.59;;;11.83;79.00
64368;BME280;50692;53.314;-6.300;2023-02-21T04:02:55;101345.00;;;11.81;79.05
64368;BME280;50692;53.314;-6.300;2023-02-21T04:05:41;101346.09;;;11.77;79.19
64368;BME280;50692;53.314;-6.300;2023-02-21T04:08:27;101340.22;;;11.70;79.46
64368;BME280;50692;53.314;-6.300;2023-02-21T04:11:17;101330.84;;;11.63;79.65
64368;BME280;50692;53.314;-6.300;2023-02-21T04:14:03;101329.06;;;11.64;79.64
64368;BME280;50692;53.314;-6.300;2023-02-21T04:16:48;101320.97;;;11.67;79.69
64368;BME280;50692;53.314;-6.300;2023-02-21T04:19:34;101329.13;;;11.62;80.02
64368;BME280;50692;53.314;-6.300;2023-02-21T04:22:20;101320.19;;;11.65;79.90
64368;BME280;50692;53.314;-6.300;2023-02-21T04:25:07;101316.59;;;11.66;79.82
64368;BME280;50692;53.314;-6.300;2023-02-21T04:27:53;101318.47;;;11.64;79.98
64368;BME280;50692;53.314;-6.300;2023-02-21T04:30:39;101307.94;;;11.62;79.98
64368;BME280;50692;53.314;-6.300;2023-02-21T04:33:24;101303.50;;;11.63;80.25
64368;BME280;50692;53.314;-6.300;2023-02-21T04:36:10;101296.78;;;11.56;80.26
64368;BME280;50692;53.314;-6.300;2023-02-21T04:38:56;101293.56;;;11.49;80.48
64368;BME280;50692;53.314;-6.300;2023-02-21T04:41:42;101287.88;;;11.39;80.85
64368;BME280;50692;53.314;-6.300;2023-02-21T04:44:28;101288.94;;;11.35;81.16
64368;BME280;50692;53.314;-6.300;2023-02-21T04:47:13;101291.75;;;11.32;81.24
64368;BME280;50692;53.314;-6.300;2023-02-21T04:49:59;101291.03;;;11.28;81.22
64368;BME280;50692;53.314;-6.300;2023-02-21T04:52:46;101289.44;;;11.24;81.36
64368;BME280;50692;53.314;-6.300;2023-02-21T04:55:32;101289.59;;;11.21;81.31
64368;BME280;50692;53.314;-6.300;2023-02-21T04:58:18;101285.31;;;11.19;81.07
64368;BME280;50692;53.314;-6.300;2023-02-21T05:01:05;101288.81;;;11.19;81.21
64368;BME280;50692;53.314;-6.300;2023-02-21T05:03:50;101290.22;;;11.08;81.53
64368;BME280;50692;53.314;-6.300;2023-02-21T05:06:36;101289.38;;;11.07;81.54
64368;BME280;50692;53.314;-6.300;2023-02-21T05:09:22;101283.63;;;10.97;81.53
64368;BME280;50692;53.314;-6.300;2023-02-21T05:12:08;101292.22;;;11.02;81.51
64368;BME280;50692;53.314;-6.300;2023-02-21T05:14:56;101287.72;;;11.04;80.87
64368;BME280;50692;53.314;-6.300;2023-02-21T05:17:42;101273.28;;;11.12;80.22
64368;BME280;50692;53.314;-6.300;2023-02-21T05:20:28;101279.50;;;11.11;79.98
64368;BME280;50692;53.314;-6.300;2023-02-21T05:23:13;101263.34;;;10.98;79.72
64368;BME280;50692;53.314;-6.300;2023-02-21T05:26:12;101270.41;;;10.97;79.59
64368;BME280;50692;53.314;-6.300;2023-02-21T05:28:58;101275.75;;;10.96;79.80
64368;BME280;50692;53.314;-6.300;2023-02-21T05:31:44;101265.97;;;10.98;79.55
64368;BME280;50692;53.314;-6.300;2023-02-21T05:34:30;101272.06;;;11.00;79.82
64368;BME280;50692;53.314;-6.300;2023-02-21T05:37:16;101267.81;;;10.96;79.72
64368;BME280;50692;53.314;-6.300;2023-02-21T05:40:06;101278.97;;;11.02;79.87
64368;BME280;50692;53.314;-6.300;2023-02-21T05:42:52;101271.91;;;11.03;79.74
64368;BME280;50692;53.314;-6.300;2023-02-21T05:45:37;101254.75;;;10.93;79.81
64368;BME280;50692;53.314;-6.300;2023-02-21T05:48:23;101265.25;;;10.94;80.03
64368;BME280;50692;53.314;-6.300;2023-02-21T05:51:09;101265.19;;;10.96;79.88
64368;BME280;50692;53.314;-6.300;2023-02-21T05:53:55;101259.03;;;10.95;79.57
64368;BME280;50692;53.314;-6.300;2023-02-21T05:56:42;101248.66;;;10.91;79.66
64368;BME280;50692;53.314;-6.300;2023-02-21T05:59:28;101260.25;;;10.88;79.61
64368;BME280;50692;53.314;-6.300;2023-02-21T06:02:14;101261.53;;;10.79;79.68
64368;BME280;50692;53.314;-6.300;2023-02-21T06:05:00;101252.88;;;10.76;79.70
64368;BME280;50692;53.314;-6.300;2023-02-21T06:07:46;101254.53;;;10.78;79.36
64368;BME280;50692;53.314;-6.300;2023-02-21T06:10:32;101252.59;;;10.82;79.13
64368;BME280;50692;53.314;-6.300;2023-02-21T06:13:18;101247.50;;;10.77;79.19
64368;BME280;50692;53.314;-6.300;2023-02-21T06:16:04;101249.16;;;10.80;78.89
64368;BME280;50692;53.314;-6.300;2023-02-21T06:18:55;101249.03;;;10.83;78.61
64368;BME280;50692;53.314;-6.300;2023-02-21T06:21:42;101240.44;;;10.78;78.57
64368;BME280;50692;53.314;-6.300;2023-02-21T06:24:28;101243.03;;;10.79;78.39
64368;BME280;50692;53.314;-6.300;2023-02-21T06:27:13;101234.09;;;10.82;78.09
64368;BME280;50692;53.314;-6.300;2023-02-21T06:30:00;101239.31;;;10.84;77.92
64368;BME280;50692;53.314;-6.300;2023-02-21T06:32:46;101225.38;;;10.80;77.89
64368;BME280;50692;53.314;-6.300;2023-02-21T06:35:32;101230.50;;;10.83;77.54
64368;BME280;50692;53.314;-6.300;2023-02-21T06:38:18;101222.34;;;10.88;77.50
64368;BME280;50692;53.314;-6.300;2023-02-21T06:41:07;101212.22;;;10.78;77.57
64368;BME280;50692;53.314;-6.300;2023-02-21T06:43:55;101226.88;;;10.86;77.74
64368;BME280;50692;53.314;-6.300;2023-02-21T06:46:41;101223.56;;;10.80;78.27
64368;BME280;50692;53.314;-6.300;2023-02-21T06:49:27;101231.94;;;10.90;78.03
64368;BME280;50692;53.314;-6.300;2023-02-21T06:52:13;101231.16;;;10.88;78.21
64368;BME280;50692;53.314;-6.300;2023-02-21T06:54:59;101227.00;;;10.83;78.92
64368;BME280;50692;53.314;-6.300;2023-02-21T06:57:45;101227.66;;;10.88;78.79
64368;BME280;50692;53.314;-6.300;2023-02-21T07:00:31;101233.06;;;10.85;79.12
64368;BME280;50692;53.314;-6.300;2023-02-21T07:03:17;101223.44;;;10.84;79.09
64368;BME280;50692;53.314;-6.300;2023-02-21T07:06:03;101220.88;;;10.82;78.90
64368;BME280;50692;53.314;-6.300;2023-02-21T07:08:49;101213.25;;;10.74;79.26
64368;BME280;50692;53.314;-6.300;2023-02-21T07:11:35;101220.06;;;10.80;79.11
64368;BME280;50692;53.314;-6.300;2023-02-21T07:14:20;101210.56;;;10.76;79.01
64368;BME280;50692;53.314;-6.300;2023-02-21T07:17:06;101215.00;;;10.75;79.03
64368;BME280;50692;53.314;-6.300;2023-02-21T07:19:52;101193.53;;;10.63;78.88
64368;BME280;50692;53.314;-6.300;2023-02-21T07:22:38;101200.69;;;10.61;79.49
64368;BME280;50692;53.314;-6.300;2023-02-21T07:25:24;101209.66;;;10.56;79.79
64368;BME280;50692;53.314;-6.300;2023-02-21T07:28:10;101215.16;;;10.52;79.70
64368;BME280;50692;53.314;-6.300;2023-02-21T07:30:56;101215.84;;;10.57;79.42
64368;BME280;50692;53.314;-6.300;2023-02-21T07:33:42;101213.25;;;10.55;79.20
64368;BME280;50692;53.314;-6.300;2023-02-21T07:36:28;101211.16;;;10.43;79.40
64368;BME280;50692;53.314;-6.300;2023-02-21T07:39:14;101211.53;;;10.54;79.09
64368;BME280;50692;53.314;-6.300;2023-02-21T07:41:59;101215.38;;;10.47;79.21
64368;BME280;50692;53.314;-6.300;2023-02-21T07:44:45;101212.66;;;10.49;79.38
64368;BME280;50692;53.314;-6.300;2023-02-21T07:47:32;101211.59;;;10.53;79.12
64368;BME280;50692;53.314;-6.300;2023-02-21T07:50:18;101215.13;;;10.53;78.92
64368;BME280;50692;53.314;-6.300;2023-02-21T07:53:04;101214.22;;;10.53;78.36
64368;BME280;50692;53.314;-6.300;2023-02-21T07:55:49;101211.81;;;10.48;78.57
64368;BME280;50692;53.314;-6.300;2023-02-21T07:58:35;101213.34;;;10.54;78.51
64368;BME280;50692;53.314;-6.300;2023-02-21T08:01:23;101213.38;;;10.52;78.28
64368;BME280;50692;53.314;-6.300;2023-02-21T08:04:09;101207.97;;;10.55;77.98
64368;BME280;50692;53.314;-6.300;2023-02-21T08:06:59;101204.38;;;10.56;77.72
64368;BME280;50692;53.314;-6.300;2023-02-21T08:09:45;101205.44;;;10.52;77.65
64368;BME280;50692;53.314;-6.300;2023-02-21T08:12:31;101206.47;;;10.50;77.89
64368;BME280;50692;53.314;-6.300;2023-02-21T08:15:17;101201.22;;;10.48;77.79
64368;BME280;50692;53.314;-6.300;2023-02-21T08:18:03;101207.25;;;10.52;77.72
64368;BME280;50692;53.314;-6.300;2023-02-21T08:20:50;101193.53;;;10.63;77.73
64368;BME280;50692;53.314;-6.300;2023-02-21T08:23:36;101193.13;;;10.72;77.57
64368;BME280;50692;53.314;-6.300;2023-02-21T08:26:22;101186.28;;;10.87;77.79
64368;BME280;50692;53.314;-6.300;2023-02-21T08:29:08;101191.25;;;11.12;77.12
64368;BME280;50692;53.314;-6.300;2023-02-21T08:31:54;101182.06;;;11.38;76.41
64368;BME280;50692;53.314;-6.300;2023-02-21T08:34:43;101185.53;;;11.57;74.14
64368;BME280;50692;53.314;-6.300;2023-02-21T08:37:29;101176.34;;;11.64;73.97
64368;BME280;50692;53.314;-6.300;2023-02-21T08:40:18;101177.53;;;11.76;72.79
64368;BME280;50692;53.314;-6.300;2023-02-21T08:43:04;101189.56;;;12.00;72.12
64368;BME280;50692;53.314;-6.300;2023-02-21T08:45:50;101187.41;;;12.24;70.79
64368;BME280;50692;53.314;-6.300;2023-02-21T08:48:36;101186.84;;;12.35;70.01
64368;BME280;50692;53.314;-6.300;2023-02-21T08:51:29;101196.28;;;12.41;69.97
64368;BME280;50692;53.314;-6.300;2023-02-21T08:54:15;101192.75;;;12.58;69.35
64368;BME280;50692;53.314;-6.300;2023-02-21T08:57:02;101181.09;;;12.60;69.68
64368;BME280;50692;53.314;-6.300;2023-02-21T08:59:48;101174.28;;;12.72;68.53
64368;BME280;50692;53.314;-6.300;2023-02-21T09:02:34;101173.44;;;12.87;69.13
64368;BME280;50692;53.314;-6.300;2023-02-21T09:05:23;101171.91;;;13.15;67.47
64368;BME280;50692;53.314;-6.300;2023-02-21T09:08:11;101174.84;;;13.26;66.67
64368;BME280;50692;53.314;-6.300;2023-02-21T09:10:57;101159.81;;;13.25;65.66
64368;BME280;50692;53.314;-6.300;2023-02-21T09:13:46;101169.66;;;13.39;66.04
64368;BME280;50692;53.314;-6.300;2023-02-21T09:16:32;101158.84;;;13.58;65.38
64368;BME280;50692;53.314;-6.300;2023-02-21T09:19:18;101178.28;;;13.88;63.68
64368;BME280;50692;53.314;-6.300;2023-02-21T09:22:09;101162.00;;;13.79;62.63
64368;BME280;50692;53.314;-6.300;2023-02-21T09:24:56;101160.78;;;13.70;63.86
64368;BME280;50692;53.314;-6.300;2023-02-21T09:27:42;101153.91;;;13.96;62.00
64368;BME280;50692;53.314;-6.300;2023-02-21T09:30:27;101149.66;;;13.94;62.35
64368;BME280;50692;53.314;-6.300;2023-02-21T09:33:14;101141.50;;;14.25;61.59
64368;BME280;50692;53.314;-6.300;2023-02-21T09:36:00;101148.53;;;14.40;61.34
64368;BME280;50692;53.314;-6.300;2023-02-21T09:38:46;101151.69;;;14.76;60.95
64368;BME280;50692;53.314;-6.300;2023-02-21T09:41:33;101147.88;;;15.07;59.10
64368;BME280;50692;53.314;-6.300;2023-02-21T09:44:22;101145.94;;;15.23;58.68
64368;BME280;50692;53.314;-6.300;2023-02-21T09:47:17;101145.78;;;15.66;57.06
64368;BME280;50692;53.314;-6.300;2023-02-21T09:50:11;101152.44;;;15.99;54.75
64368;BME280;50692;53.314;-6.300;2023-02-21T09:52:59;101151.00;;;15.68;55.22
64368;BME280;50692;53.314;-6.300;2023-02-21T09:55:47;101141.56;;;15.49;55.74
64368;BME280;50692;53.314;-6.300;2023-02-21T09:58:34;101138.81;;;15.24;56.40
64368;BME280;50692;53.314;-6.300;2023-02-21T10:04:34;101122.38;;;15.44;57.01
64368;BME280;50692;53.314;-6.300;2023-02-21T10:07:52;101119.69;;;15.84;55.19
64368;BME280;50692;53.314;-6.300;2023-02-21T10:10:52;101121.31;;;16.12;54.82
64368;BME280;50692;53.314;-6.300;2023-02-21T10:13:51;101107.50;;;16.44;54.25
64368;BME280;50692;53.314;-6.300;2023-02-21T10:17:22;101098.19;;;16.62;53.35
64368;BME280;50692;53.314;-6.300;2023-02-21T10:23:24;101081.56;;;16.95;51.89
64368;BME280;50692;53.314;-6.300;2023-02-21T10:26:19;101072.47;;;16.98;50.79
64368;BME280;50692;53.314;-6.300;2023-02-21T10:29:21;101076.09;;;16.97;51.43
64368;BME280;50692;53.314;-6.300;2023-02-21T10:32:07;101080.13;;;17.02;50.57
64368;BME280;50692;53.314;-6.300;2023-02-21T10:34:54;101077.00;;;16.72;51.74
64368;BME280;50692;53.314;-6.300;2023-02-21T10:37:50;101081.72;;;16.68;51.65
64368;BME280;50692;53.314;-6.300;2023-02-21T10:40:39;101093.44;;;16.42;52.59
64368;BME280;50692;53.314;-6.300;2023-02-21T10:43:36;101082.75;;;16.42;52.85
64368;BME280;50692;53.314;-6.300;2023-02-21T10:46:31;101079.38;;;16.14;53.54
64368;BME280;50692;53.314;-6.300;2023-02-21T10:49:22;101085.88;;;16.10;54.37
64368;BME280;50692;53.314;-6.300;2023-02-21T10:52:10;101074.88;;;16.15;53.67
64368;BME280;50692;53.314;-6.300;2023-02-21T10:55:04;101074.19;;;16.62;53.06
64368;BME280;50692;53.314;-6.300;2023-02-21T10:57:57;101068.91;;;17.21;51.35
64368;BME280;50692;53.314;-6.300;2023-02-21T11:00:50;101067.94;;;17.58;50.58
64368;BME280;50692;53.314;-6.300;2023-02-21T11:03:36;101063.31;;;17.95;49.69
64368;BME280;50692;53.314;-6.300;2023-02-21T11:06:33;101064.16;;;17.95;48.48
64368;BME280;50692;53.314;-6.300;2023-02-21T11:18:02;101048.47;;;19.23;46.40
64368;BME280;50692;53.314;-6.300;2023-02-21T11:20:49;101048.38;;;19.45;45.94
64368;BME280;50692;53.314;-6.300;2023-02-21T11:23:36;101056.44;;;19.34;46.19
64368;BME280;50692;53.314;-6.300;2023-02-21T11:26:22;101048.56;;;19.53;46.37
64368;BME280;50692;53.314;-6.300;2023-02-21T11:29:12;101050.84;;;19.58;44.38
64368;BME280;50692;53.314;-6.300;2023-02-21T11:32:10;101040.84;;;19.60;44.31
64368;BME280;50692;53.314;-6.300;2023-02-21T11:35:03;101039.06;;;19.91;44.31
64368;BME280;50692;53.314;-6.300;2023-02-21T11:38:03;101040.53;;;19.95;43.83
64368;BME280;50692;53.314;-6.300;2023-02-21T11:40:50;101035.94;;;20.17;44.06
64368;BME280;50692;53.314;-6.300;2023-02-21T11:43:44;101026.44;;;20.12;43.27
64368;BME280;50692;53.314;-6.300;2023-02-21T11:46:48;101016.59;;;19.82;44.08
64368;BME280;50692;53.314;-6.300;2023-02-21T11:52:48;101012.25;;;20.41;42.91
64368;BME280;50692;53.314;-6.300;2023-02-21T11:55:37;101013.47;;;20.58;42.69
64368;BME280;50692;53.314;-6.300;2023-02-21T11:58:42;101011.25;;;20.63;42.65
64368;BME280;50692;53.314;-6.300;2023-02-21T12:01:41;101007.56;;;21.13;42.43
64368;BME280;50692;53.314;-6.300;2023-02-21T12:17:20;100971.16;;;22.85;38.85
64368;BME280;50692;53.314;-6.300;2023-02-21T12:20:35;100974.53;;;22.87;38.05
64368;BME280;50692;53.314;-6.300;2023-02-21T12:27:16;100965.84;;;23.37;36.97
64368;BME280;50692;53.314;-6.300;2023-02-21T12:33:26;100949.50;;;22.77;37.83
64368;BME280;50692;53.314;-6.300;2023-02-21T12:36:39;100949.03;;;22.28;37.35
64368;BME280;50692;53.314;-6.300;2023-02-21T12:46:31;100933.31;;;22.23;38.00
64368;BME280;50692;53.314;-6.300;2023-02-21T12:50:30;100928.28;;;22.11;38.28
64368;BME280;50692;53.314;-6.300;2023-02-21T12:52:55;100934.50;;;21.84;38.89
64368;BME280;50692;53.314;-6.300;2023-02-21T12:56:14;100920.53;;;21.70;38.58
64368;BME280;50692;53.314;-6.300;2023-02-21T12:59:03;100916.56;;;21.27;40.33
64368;BME280;50692;53.314;-6.300;2023-02-21T13:02:21;100914.59;;;21.20;40.57
64368;BME280;50692;53.314;-6.300;2023-02-21T13:05:23;100904.94;;;21.27;40.21
64368;BME280;50692;53.314;-6.300;2023-02-21T13:08:18;100907.63;;;21.46;39.39
64368;BME280;50692;53.314;-6.300;2023-02-21T13:11:25;100917.88;;;21.14;40.26
64368;BME280;50692;53.314;-6.300;2023-02-21T13:14:34;100907.69;;;21.17;40.15
64368;BME280;50692;53.314;-6.300;2023-02-21T13:17:22;100895.88;;;21.47;39.50
64368;BME280;50692;53.314;-6.300;2023-02-21T13:20:16;100881.81;;;21.81;39.23
64368;BME280;50692;53.314;-6.300;2023-02-21T13:23:05;100887.19;;;22.09;38.51
64368;BME280;50692;53.314;-6.300;2023-02-21T13:26:18;100883.03;;;21.69;39.71
64368;BME280;50692;53.314;-6.300;2023-02-21T13:29:26;100878.66;;;21.68;39.72
64368;BME280;50692;53.314;-6.300;2023-02-21T13:32:15;100868.94;;;22.48;38.47
64368;BME280;50692;53.314;-6.300;2023-02-21T13:35:07;100866.06;;;22.85;37.79
64368;BME280;50692;53.314;-6.300;2023-02-21T13:37:54;100865.59;;;22.72;37.20
64368;BME280;50692;53.314;-6.300;2023-02-21T13:43:51;100847.72;;;23.15;36.37
64368;BME280;50692;53.314;-6.300;2023-02-21T13:49:36;100841.44;;;22.62;37.30
64368;BME280;50692;53.314;-6.300;2023-02-21T14:00:52;100821.97;;;21.51;39.81
64368;BME280;50692;53.314;-6.300;2023-02-21T14:03:38;100815.78;;;22.14;38.77
64368;BME280;50692;53.314;-6.300;2023-02-21T14:06:33;100817.13;;;22.98;37.22
64368;BME280;50692;53.314;-6.300;2023-02-21T14:09:19;100809.22;;;23.73;35.99
64368;BME280;50692;53.314;-6.300;2023-02-21T14:12:05;100821.50;;;24.59;34.42
64368;BME280;50692;53.314;-6.300;2023-02-21T14:15:05;100814.00;;;25.02;33.52
64368;BME280;50692;53.314;-6.300;2023-02-21T14:17:52;100794.09;;;25.50;32.80
64368;BME280;50692;53.314;-6.300;2023-02-21T14:20:38;100800.66;;;25.87;32.74
64368;BME280;50692;53.314;-6.300;2023-02-21T14:23:35;100790.88;;;26.09;31.69
64368;BME280;50692;53.314;-6.300;2023-02-21T14:33:20;100782.44;;;25.73;31.00
64368;BME280;50692;53.314;-6.300;2023-02-21T14:36:09;100776.13;;;25.57;31.75
64368;BME280;50692;53.314;-6.300;2023-02-21T14:38:59;100776.81;;;25.12;32.85
64368;BME280;50692;53.314;-6.300;2023-02-21T14:48:00;100756.47;;;23.79;34.64
64368;BME280;50692;53.314;-6.300;2023-02-21T14:56:56;100763.41;;;23.39;35.29
64368;BME280;50692;53.314;-6.300;2023-02-21T15:05:59;100758.94;;;21.99;37.99
64368;BME280;50692;53.314;-6.300;2023-02-21T15:08:49;100739.69;;;21.59;38.43
64368;BME280;50692;53.314;-6.300;2023-02-21T15:11:37;100761.56;;;20.81;40.13
64368;BME280;50692;53.314;-6.300;2023-02-21T15:14:27;100773.19;;;19.75;42.60
64368;BME280;50692;53.314;-6.300;2023-02-21T15:17:18;100760.72;;;18.74;45.43
64368;BME280;50692;53.314;-6.300;2023-02-21T15:20:16;100764.78;;;18.57;46.06
64368;BME280;50692;53.314;-6.300;2023-02-21T15:23:16;100756.31;;;18.10;47.25
64368;BME280;50692;53.314;-6.300;2023-02-21T15:26:21;100771.50;;;17.55;49.42
64368;BME280;50692;53.314;-6.300;2023-02-21T15:29:14;100760.28;;;17.17;50.86
64368;BME280;50692;53.314;-6.300;2023-02-21T15:32:00;100767.28;;;17.30;50.76
64368;BME280;50692;53.314;-6.300;2023-02-21T15:34:52;100755.41;;;17.22;51.18
64368;BME280;50692;53.314;-6.300;2023-02-21T15:37:39;100751.53;;;16.93;51.74
64368;BME280;50692;53.314;-6.300;2023-02-21T15:40:27;100751.47;;;16.48;53.48
64368;BME280;50692;53.314;-6.300;2023-02-21T15:43:28;100744.97;;;16.17;54.58
64368;BME280;50692;53.314;-6.300;2023-02-21T15:46:31;100758.28;;;16.52;54.08
64368;BME280;50692;53.314;-6.300;2023-02-21T15:49:26;100755.53;;;16.76;52.73
64368;BME280;50692;53.314;-6.300;2023-02-21T15:55:28;100738.94;;;16.84;52.41
64368;BME280;50692;53.314;-6.300;2023-02-21T15:58:19;100740.69;;;16.61;52.89
64368;BME280;50692;53.314;-6.300;2023-02-21T16:01:09;100736.25;;;16.26;54.23
64368;BME280;50692;53.314;-6.300;2023-02-21T16:04:14;100731.88;;;15.90;55.64
64368;BME280;50692;53.314;-6.300;2023-02-21T16:07:00;100729.81;;;15.45;57.34
64368;BME280;50692;53.314;-6.300;2023-02-21T16:09:49;100726.13;;;15.35;58.17
64368;BME280;50692;53.314;-6.300;2023-02-21T16:12:37;100718.97;;;15.35;58.50
64368;BME280;50692;53.314;-6.300;2023-02-21T16:15:26;100712.56;;;15.51;57.79
64368;BME280;50692;53.314;-6.300;2023-02-21T16:18:17;100711.22;;;15.69;57.00
64368;BME280;50692;53.314;-6.300;2023-02-21T16:21:06;100695.22;;;15.32;58.38
64368;BME280;50692;53.314;-6.300;2023-02-21T16:23:53;100690.31;;;15.15;59.08
64368;BME280;50692;53.314;-6.300;2023-02-21T16:26:38;100698.25;;;14.78;60.91
64368;BME280;50692;53.314;-6.300;2023-02-21T16:29:24;100690.31;;;14.66;61.85
64368;BME280;50692;53.314;-6.300;2023-02-21T16:32:16;100677.63;;;14.56;62.36
64368;BME280;50692;53.314;-6.300;2023-02-21T16:35:04;100676.38;;;14.62;62.18
64368;BME280;50692;53.314;-6.300;2023-02-21T16:37:53;100668.47;;;14.73;61.71
64368;BME280;50692;53.314;-6.300;2023-02-21T16:40:40;100666.88;;;14.71;61.74
64368;BME280;50692;53.314;-6.300;2023-02-21T16:43:28;100667.00;;;14.69;61.44
64368;BME280;50692;53.314;-6.300;2023-02-21T16:46:14;100685.28;;;14.74;61.07
64368;BME280;50692;53.314;-6.300;2023-02-21T16:49:00;100676.78;;;14.69;61.57